Terminal Aerodrome Forecast
Issued by NWS Sioux Falls, SD

Home | Current Version | Previous Version | Text Only | Print | Product List | Glossary Off
Versions: 1 2 3 4 5 6 7 8 9 10 11 12 13 14 15 16 17

000
FTUS43 KFSD 242239 AAB
TAFHON
TAF AMD
KHON 242239Z 2423/2518 16014G20KT 6SM BR OVC009
     FM250000 16011KT P6SM OVC009
     FM250600 30010KT P6SM SCT025
     FM250900 30014KT P6SM BKN030
     FM251500 31020G28KT P6SM BKN035=

USA.gov is the U.S. government's official web portal to all federal, state and local government web resources and services.